Time;durP1;ratioP1;P1;durP2;ratioP2;P2;SDS_P1;SDS_P2;PMS_P1;PMS_P2;Temp;Humidity;BMP_temperature;BMP_pressure;BME280_temperature;BME280_humidity;BME280_pressure;Samples;Min_cycle;Max_cycle;Signal;HPM_P1;HPM_P2
2022/10/02 00:01:49;;;;;;;9.50;5.90;;;15.10;99.90;;;;;;5015264;28;20502;-63
2022/10/02 00:04:25;;;;;;;9.50;5.33;;;15.00;99.90;;;;;;5015890;28;20410;-63
2022/10/02 00:06:54;;;;;;;9.70;5.70;;;15.10;99.90;;;;;;5015916;28;20450;-63
2022/10/02 00:09:37;;;;;;;11.33;5.60;;;15.10;99.90;;;;;;5015684;28;20531;-63
2022/10/02 00:12:07;;;;;;;7.20;5.40;;;15.20;99.90;;;;;;5015762;28;20423;-63
2022/10/02 00:14:37;;;;;;;8.10;5.13;;;15.10;99.90;;;;;;5014636;28;20446;-63
2022/10/02 00:17:03;;;;;;;7.80;4.63;;;15.10;99.90;;;;;;5015613;28;20433;-63
2022/10/02 00:19:29;;;;;;;8.17;5.47;;;15.10;99.90;;;;;;5014582;28;20946;-63
2022/10/02 00:22:10;;;;;;;12.93;5.63;;;15.10;99.90;;;;;;5015147;28;20868;-63
2022/10/02 00:24:41;;;;;;;7.80;5.60;;;15.20;99.90;;;;;;5014804;28;20425;-63
2022/10/02 00:27:30;;;;;;;7.70;5.80;;;15.20;99.90;;;;;;5015296;28;20408;-63
2022/10/02 00:29:59;;;;;;;10.53;5.43;;;15.20;99.90;;;;;;5015305;28;20438;-64
2022/10/02 00:32:38;;;;;;;11.20;5.77;;;15.20;99.90;;;;;;5014673;28;20902;-63
2022/10/02 00:35:19;;;;;;;7.67;5.30;;;15.20;99.90;;;;;;4997618;28;21005;-63
2022/10/02 00:38:02;;;;;;;12.90;5.90;;;15.20;99.90;;;;;;5014521;28;20418;-63
2022/10/02 00:40:46;;;;;;;11.80;5.73;;;15.20;99.90;;;;;;5014588;28;20513;-63
2022/10/02 00:43:31;;;;;;;9.57;6.10;;;15.20;99.90;;;;;;5015107;28;20405;-63
2022/10/02 00:46:26;;;;;;;10.43;5.53;;;15.20;99.90;;;;;;5014899;28;20435;-63
2022/10/02 00:49:09;;;;;;;15.97;5.90;;;15.20;99.90;;;;;;5014749;28;20399;-63
2022/10/02 00:52:03;;;;;;;8.27;5.23;;;15.20;99.90;;;;;;5014340;28;20427;-63
2022/10/02 00:55:15;;;;;;;11.73;5.40;;;15.10;99.90;;;;;;5014264;28;20490;-63
2022/10/02 00:58:11;;;;;;;12.37;6.23;;;15.10;99.90;;;;;;5013923;28;20729;-63
2022/10/02 01:00:39;;;;;;;14.63;6.30;;;15.10;99.90;;;;;;5014228;28;20750;-63
2022/10/02 01:03:27;;;;;;;8.70;5.70;;;15.10;99.90;;;;;;5014380;28;20419;-63
2022/10/02 01:05:52;;;;;;;12.30;6.70;;;15.20;99.90;;;;;;5014613;28;20457;-63
2022/10/02 01:08:18;;;;;;;9.13;6.50;;;15.30;99.90;;;;;;5013730;28;20834;-63
2022/10/02 01:10:44;;;;;;;10.23;6.23;;;15.20;99.90;;;;;;4996488;28;20204;-63
2022/10/02 01:13:10;;;;;;;13.40;6.50;;;15.20;99.90;;;;;;5014575;28;20272;-63
2022/10/02 01:15:39;;;;;;;19.40;8.63;;;15.20;99.90;;;;;;4996115;28;21122;-63
2022/10/02 01:18:07;;;;;;;12.30;7.33;;;15.30;99.90;;;;;;5014488;28;20858;-63
2022/10/02 01:20:44;;;;;;;9.47;6.70;;;15.30;99.90;;;;;;5013729;28;20416;-63
2022/10/02 01:23:25;;;;;;;15.20;7.23;;;15.30;99.90;;;;;;5014444;28;20423;-63
2022/10/02 01:25:51;;;;;;;15.27;7.20;;;15.40;99.90;;;;;;5014498;28;20404;-64
2022/10/02 01:28:17;;;;;;;13.67;6.80;;;15.50;99.90;;;;;;4996587;28;20473;-63
2022/10/02 01:30:47;;;;;;;22.23;7.73;;;15.50;99.90;;;;;;5013606;28;20181;-63
2022/10/02 01:33:14;;;;;;;11.93;7.50;;;15.50;99.90;;;;;;5014026;28;20420;-63
2022/10/02 01:35:41;;;;;;;16.10;7.50;;;15.50;99.90;;;;;;4995976;28;20464;-63
2022/10/02 01:38:10;;;;;;;15.67;8.40;;;15.60;99.90;;;;;;5013994;28;20420;-63
2022/10/02 01:40:38;;;;;;;17.00;8.70;;;15.60;99.90;;;;;;5013353;28;20452;-63
2022/10/02 01:43:09;;;;;;;12.27;7.23;;;15.60;99.90;;;;;;5013846;28;20460;-63
2022/10/02 01:45:59;;;;;;;11.93;7.40;;;15.60;99.90;;;;;;5013044;28;20432;-63
2022/10/02 01:48:40;;;;;;;12.10;7.63;;;15.70;99.90;;;;;;5013941;28;20746;-63
2022/10/02 01:51:25;;;;;;;13.80;7.77;;;15.70;99.90;;;;;;5013925;28;20433;-63
2022/10/02 01:54:21;;;;;;;21.10;8.50;;;15.70;99.90;;;;;;5012763;28;21067;-63
2022/10/02 01:57:11;;;;;;;12.20;8.43;;;15.70;99.90;;;;;;5012925;28;20894;-63
2022/10/02 01:59:46;;;;;;;14.80;7.60;;;15.80;99.90;;;;;;5013117;28;20817;-63
2022/10/02 02:02:33;;;;;;;12.80;8.00;;;15.80;99.90;;;;;;5013706;28;20816;-63
2022/10/02 02:05:25;;;;;;;12.90;8.40;;;15.80;99.90;;;;;;5013678;28;20467;-63
2022/10/02 02:08:00;;;;;;;12.70;7.80;;;15.80;99.90;;;;;;5012958;28;20868;-63
2022/10/02 02:10:56;;;;;;;17.80;8.47;;;15.80;99.90;;;;;;4946859;28;20536;-63
2022/10/02 02:13:30;;;;;;;13.37;7.50;;;15.80;99.90;;;;;;5013485;28;20570;-63
2022/10/02 02:16:22;;;;;;;12.13;8.30;;;15.80;99.90;;;;;;4995728;28;20469;-63
2022/10/02 02:18:53;;;;;;;14.20;7.83;;;15.90;99.90;;;;;;5012717;28;20419;-63
2022/10/02 02:21:29;;;;;;;15.23;7.83;;;15.90;99.90;;;;;;5013330;28;20486;-63
2022/10/02 02:23:58;;;;;;;17.33;8.93;;;15.90;99.90;;;;;;5013502;28;20412;-63
2022/10/02 02:26:26;;;;;;;15.83;8.40;;;15.90;99.90;;;;;;5013213;28;20508;-63
2022/10/02 02:28:58;;;;;;;16.77;7.60;;;15.90;99.90;;;;;;5012360;28;20424;-63
2022/10/02 02:31:31;;;;;;;14.07;9.00;;;16.00;99.90;;;;;;4995685;28;20425;-63
2022/10/02 02:34:01;;;;;;;10.63;7.43;;;15.90;99.90;;;;;;5013333;28;20478;-63
2022/10/02 02:36:34;;;;;;;14.70;7.50;;;16.10;99.90;;;;;;5013241;28;20449;-63
2022/10/02 02:39:05;;;;;;;22.40;7.80;;;16.00;99.90;;;;;;5013223;28;20397;-63
2022/10/02 02:41:57;;;;;;;12.40;7.93;;;16.00;99.90;;;;;;5012498;28;20394;-64
2022/10/02 02:44:26;;;;;;;13.73;8.40;;;16.00;99.90;;;;;;5013153;28;20753;-63
2022/10/02 02:47:11;;;;;;;14.17;7.70;;;16.00;99.90;;;;;;5012437;28;20422;-63
2022/10/02 02:49:45;;;;;;;14.10;8.40;;;16.00;99.90;;;;;;5012298;28;20406;-63
2022/10/02 02:52:16;;;;;;;16.40;7.90;;;16.00;99.90;;;;;;5012703;28;20434;-63
2022/10/02 02:55:17;;;;;;;13.73;8.10;;;16.00;99.90;;;;;;5012320;28;20955;-63
2022/10/02 02:57:50;;;;;;;14.70;8.60;;;16.10;99.90;;;;;;5012328;28;20781;-63
2022/10/02 03:00:18;;;;;;;12.83;8.83;;;16.00;99.90;;;;;;5013242;28;20493;-63
2022/10/02 03:02:44;;;;;;;12.50;7.97;;;16.00;99.90;;;;;;5012168;28;20420;-63
2022/10/02 03:05:15;;;;;;;14.13;7.93;;;16.00;99.90;;;;;;5012664;28;20551;-63
2022/10/02 03:07:50;;;;;;;11.60;7.87;;;16.00;99.90;;;;;;5012243;28;20518;-63
2022/10/02 03:10:21;;;;;;;15.70;9.17;;;16.00;99.90;;;;;;5012815;28;20409;-63
2022/10/02 03:13:21;;;;;;;12.77;8.20;;;16.00;99.90;;;;;;5011918;28;20398;-63
2022/10/02 03:16:07;;;;;;;13.27;8.03;;;16.00;99.90;;;;;;5011956;28;20471;-63
2022/10/02 03:18:54;;;;;;;11.73;8.20;;;16.00;99.90;;;;;;5012083;28;20563;-65
2022/10/02 03:21:34;;;;;;;15.90;8.93;;;16.00;99.90;;;;;;5012544;28;20409;-63
2022/10/02 03:24:07;;;;;;;12.87;8.40;;;16.00;99.90;;;;;;5012246;28;20420;-63
2022/10/02 03:26:40;;;;;;;14.37;8.40;;;16.00;99.90;;;;;;5012533;28;20421;-63
2022/10/02 03:29:38;;;;;;;12.53;7.83;;;16.10;99.90;;;;;;4994906;28;20401;-63
2022/10/02 03:32:07;;;;;;;17.07;7.87;;;16.10;99.90;;;;;;5002336;28;20425;-63
2022/10/02 03:34:33;;;;;;;12.23;8.67;;;16.00;99.90;;;;;;5016233;28;20460;-63
2022/10/02 03:37:01;;;;;;;16.07;8.40;;;16.00;99.90;;;;;;5016386;28;20417;-63
2022/10/02 03:39:26;;;;;;;11.23;7.30;;;16.10;99.90;;;;;;5015867;28;20415;-63
2022/10/02 03:41:53;;;;;;;16.93;9.00;;;16.10;99.90;;;;;;5015575;28;20405;-63
2022/10/02 03:44:18;;;;;;;12.60;8.63;;;16.10;99.90;;;;;;5015989;28;20252;-63
2022/10/02 03:46:44;;;;;;;18.43;8.27;;;16.10;99.90;;;;;;5015284;28;20412;-64
2022/10/02 03:49:10;;;;;;;15.27;9.30;;;16.10;99.90;;;;;;5016065;28;20230;-63
2022/10/02 03:51:35;;;;;;;12.57;8.77;;;16.00;99.90;;;;;;5015429;28;20202;-64
2022/10/02 03:54:02;;;;;;;14.50;8.53;;;16.00;99.90;;;;;;5016030;28;20237;-63
2022/10/02 03:56:41;;;;;;;18.00;8.43;;;16.00;99.90;;;;;;5015866;28;20443;-63
2022/10/02 03:59:14;;;;;;;12.13;7.73;;;16.00;99.90;;;;;;5015962;28;20426;-63
2022/10/02 04:01:45;;;;;;;16.30;9.10;;;16.00;99.90;;;;;;5015035;28;20393;-63
2022/10/02 04:04:16;;;;;;;18.87;8.33;;;16.00;99.90;;;;;;4949107;28;20789;-63
2022/10/02 04:07:03;;;;;;;12.90;8.10;;;16.10;99.90;;;;;;5015433;28;20460;-63
2022/10/02 04:09:45;;;;;;;16.47;8.37;;;16.10;99.90;;;;;;5015689;28;20453;-63
2022/10/02 04:12:42;;;;;;;17.00;7.67;;;16.10;99.90;;;;;;5015806;28;20394;-63
2022/10/02 04:15:27;;;;;;;13.63;8.40;;;16.20;99.90;;;;;;5003823;28;20527;-64
2022/10/02 04:17:57;;;;;;;16.00;8.60;;;16.20;99.90;;;;;;5014961;28;20432;-63
2022/10/02 04:21:02;;;;;;;16.27;9.10;;;16.20;99.90;;;;;;5015567;28;20398;-63
2022/10/02 04:23:59;;;;;;;14.13;8.43;;;16.20;99.90;;;;;;5015541;28;20425;-63
2022/10/02 04:26:32;;;;;;;15.20;8.37;;;16.10;99.90;;;;;;5015373;28;20485;-63
2022/10/02 04:29:19;;;;;;;11.20;8.40;;;16.10;99.90;;;;;;5014844;28;20406;-63
2022/10/02 04:31:52;;;;;;;19.50;8.20;;;16.10;99.90;;;;;;5014683;28;20441;-63
2022/10/02 04:34:18;;;;;;;12.60;7.80;;;16.20;99.90;;;;;;5015466;28;20449;-63
2022/10/02 04:36:46;;;;;;;17.43;8.90;;;16.10;99.90;;;;;;5014656;28;20422;-63
2022/10/02 04:39:26;;;;;;;18.63;7.60;;;16.10;99.90;;;;;;5015278;28;20236;-63
2022/10/02 04:42:06;;;;;;;13.13;7.33;;;16.10;99.90;;;;;;4996392;28;20433;-63
2022/10/02 04:44:45;;;;;;;16.20;8.27;;;16.20;99.90;;;;;;5014907;28;20412;-63
2022/10/02 04:47:29;;;;;;;16.33;8.80;;;16.20;99.90;;;;;;5014742;28;20476;-63
2022/10/02 04:50:32;;;;;;;20.87;8.57;;;16.20;99.90;;;;;;5014425;28;20410;-63
2022/10/02 04:53:11;;;;;;;15.83;7.10;;;16.20;99.90;;;;;;5014300;28;20694;-64
2022/10/02 04:56:00;;;;;;;11.10;6.40;;;16.10;99.90;;;;;;5014855;28;20463;-63
2022/10/02 04:58:52;;;;;;;8.53;6.67;;;16.10;99.90;;;;;;5015157;28;20836;-63
2022/10/02 05:01:42;;;;;;;16.00;6.33;;;16.10;99.90;;;;;;5014781;28;20788;-63
2022/10/02 05:04:39;;;;;;;6.03;5.23;;;16.10;99.90;;;;;;5014682;28;20504;-63
2022/10/02 05:07:05;;;;;;;8.37;5.60;;;16.10;99.90;;;;;;5014899;28;20457;-63
2022/10/02 05:09:36;;;;;;;6.60;5.90;;;16.10;99.90;;;;;;5014265;28;20533;-63
2022/10/02 05:12:37;;;;;;;8.10;5.17;;;16.10;99.90;;;;;;5013787;28;20491;-63
2022/10/02 05:15:18;;;;;;;10.07;5.47;;;16.10;99.90;;;;;;5013822;28;20797;-63
2022/10/02 05:18:08;;;;;;;12.57;5.83;;;16.00;99.90;;;;;;5013848;28;20849;-64
2022/10/02 05:21:01;;;;;;;10.97;5.80;;;16.00;99.90;;;;;;5014489;28;20456;-63
2022/10/02 05:24:04;;;;;;;13.70;5.53;;;16.00;99.90;;;;;;5014455;28;20401;-63
2022/10/02 05:26:32;;;;;;;10.30;5.97;;;16.00;99.90;;;;;;5014396;28;20459;-63
2022/10/02 05:29:19;;;;;;;10.43;5.57;;;16.00;99.90;;;;;;5013512;28;20456;-63
2022/10/02 05:32:03;;;;;;;7.47;5.47;;;16.00;99.90;;;;;;5013567;28;20416;-64
2022/10/02 05:34:58;;;;;;;7.50;5.33;;;16.00;99.90;;;;;;5014080;28;20438;-63
2022/10/02 05:37:48;;;;;;;6.63;6.03;;;16.00;99.90;;;;;;5014039;28;20397;-63
2022/10/02 05:40:29;;;;;;;5.93;5.50;;;16.00;99.90;;;;;;5014150;28;20407;-63
2022/10/02 05:43:11;;;;;;;5.30;4.90;;;16.00;99.90;;;;;;5013411;28;20484;-63
2022/10/02 05:45:51;;;;;;;6.00;4.83;;;15.90;99.90;;;;;;5013439;28;20465;-63
2022/10/02 05:48:27;;;;;;;5.90;5.33;;;15.90;99.90;;;;;;4947200;28;20759;-63
2022/10/02 05:51:09;;;;;;;6.20;4.33;;;15.90;99.90;;;;;;5013146;28;20392;-63
2022/10/02 05:53:45;;;;;;;4.77;4.37;;;15.90;99.90;;;;;;5013340;28;20398;-63
2022/10/02 05:56:21;;;;;;;4.47;4.17;;;15.90;99.90;;;;;;5014086;28;20401;-63
2022/10/02 05:59:17;;;;;;;5.00;4.70;;;15.90;99.90;;;;;;5012872;28;20405;-63
2022/10/02 06:01:49;;;;;;;9.00;7.30;;;15.90;99.90;;;;;;5011089;28;20431;-65
2022/10/02 06:04:21;;;;;;;6.03;5.43;;;15.90;99.90;;;;;;5013632;28;20416;-63
2022/10/02 06:06:53;;;;;;;6.67;5.40;;;15.90;99.90;;;;;;5012620;28;20863;-63
2022/10/02 06:09:28;;;;;;;5.40;5.00;;;15.90;99.90;;;;;;5013520;28;20483;-63
2022/10/02 06:12:08;;;;;;;5.60;5.10;;;15.80;99.90;;;;;;5012920;28;20400;-63
2022/10/02 06:14:49;;;;;;;6.10;4.60;;;15.80;99.90;;;;;;5013408;28;20449;-63
2022/10/02 06:17:38;;;;;;;8.20;5.73;;;15.80;99.90;;;;;;5013115;28;20425;-63
2022/10/02 06:20:18;;;;;;;4.97;4.50;;;15.80;99.90;;;;;;4994822;28;20663;-63
2022/10/02 06:22:51;;;;;;;6.77;4.90;;;15.80;99.90;;;;;;5012800;28;20411;-64
2022/10/02 06:25:26;;;;;;;5.20;4.70;;;15.70;99.90;;;;;;5013258;28;20408;-63
2022/10/02 06:28:15;;;;;;;5.20;4.40;;;15.70;99.90;;;;;;5012635;28;20623;-63
2022/10/02 06:30:48;;;;;;;3.90;3.70;;;15.70;99.90;;;;;;5013234;28;20412;-63
2022/10/02 06:33:25;;;;;;;5.17;4.67;;;15.70;99.90;;;;;;5013328;28;20418;-63
2022/10/02 06:36:20;;;;;;;4.80;4.50;;;15.70;99.90;;;;;;5012431;28;20455;-63
2022/10/02 06:39:12;;;;;;;11.70;9.63;;;15.70;99.90;;;;;;4945734;28;20419;-64
2022/10/02 06:41:56;;;;;;;8.43;5.60;;;15.80;99.90;;;;;;5013064;28;20403;-63
2022/10/02 06:44:51;;;;;;;4.70;4.30;;;15.80;99.90;;;;;;4995670;28;20916;-63
2022/10/02 06:47:26;;;;;;;5.90;5.30;;;15.80;99.90;;;;;;4995553;28;20536;-63
2022/10/02 06:50:21;;;;;;;9.83;4.87;;;15.80;99.90;;;;;;5012273;28;20507;-63
2022/10/02 06:53:05;;;;;;;5.67;4.60;;;15.90;99.90;;;;;;5012401;28;20401;-64
2022/10/02 06:55:59;;;;;;;5.83;4.40;;;15.90;99.90;;;;;;5012909;28;20446;-63
2022/10/02 06:58:49;;;;;;;4.90;4.37;;;16.00;99.90;;;;;;5012965;28;20467;-64
2022/10/02 07:01:36;;;;;;;4.90;4.40;;;16.00;99.90;;;;;;4995377;28;20424;-63
2022/10/02 07:04:15;;;;;;;6.63;4.90;;;16.10;99.90;;;;;;5012266;28;20474;-63
2022/10/02 07:07:02;;;;;;;7.07;5.47;;;16.10;99.90;;;;;;5015377;28;20455;-63
2022/10/02 07:09:59;;;;;;;6.43;5.40;;;16.10;99.90;;;;;;5016733;28;20413;-63
2022/10/02 07:13:18;;;;;;;5.50;5.00;;;16.20;99.90;;;;;;5016700;28;20539;-63
2022/10/02 07:16:35;;;;;;;6.30;5.70;;;16.20;99.90;;;;;;4955834;29;20479;-63
2022/10/02 07:19:16;;;;;;;6.70;6.10;;;16.20;99.90;;;;;;4946375;28;20441;-63
2022/10/02 07:21:50;;;;;;;9.70;7.67;;;16.30;99.90;;;;;;5016580;28;20463;-63
2022/10/02 07:24:49;;;;;;;8.00;7.20;;;16.30;99.90;;;;;;4999028;28;20748;-63
2022/10/02 07:27:20;;;;;;;9.47;7.87;;;16.30;99.90;;;;;;5016505;28;20402;-63
2022/10/02 07:30:01;;;;;;;8.63;7.27;;;16.30;99.90;;;;;;5016389;28;20470;-63
2022/10/02 07:32:58;;;;;;;9.40;7.23;;;16.30;99.90;;;;;;5016210;28;20397;-63
2022/10/02 07:35:29;;;;;;;11.00;7.10;;;16.30;99.90;;;;;;5016309;28;20443;-63
2022/10/02 07:38:06;;;;;;;9.80;7.70;;;16.20;99.90;;;;;;5015732;28;20410;-63
2022/10/02 07:41:02;;;;;;;7.87;7.07;;;16.30;99.90;;;;;;5016255;28;20408;-63
2022/10/02 07:43:47;;;;;;;8.70;6.87;;;16.30;99.90;;;;;;5016199;28;20406;-63
2022/10/02 07:46:37;;;;;;;13.23;6.83;;;16.40;99.90;;;;;;5015896;28;20815;-63
2022/10/02 07:49:08;;;;;;;8.63;7.80;;;16.40;99.90;;;;;;5015457;28;20418;-63
2022/10/02 07:51:50;;;;;;;13.30;7.20;;;16.50;99.90;;;;;;5016116;28;20526;-63
2022/10/02 07:54:34;;;;;;;11.03;6.97;;;16.50;99.90;;;;;;5015976;28;20480;-63
2022/10/02 07:57:24;;;;;;;8.10;6.17;;;16.50;99.90;;;;;;5015440;28;20881;-63
2022/10/02 07:59:53;;;;;;;7.63;5.70;;;16.60;99.90;;;;;;4997728;28;20456;-65
2022/10/02 08:02:45;;;;;;;9.30;5.70;;;16.50;99.90;;;;;;5015761;28;20416;-63
2022/10/02 08:05:24;;;;;;;7.17;5.80;;;16.60;99.90;;;;;;5006835;28;20465;-63
2022/10/02 08:07:56;;;;;;;8.03;5.83;;;16.60;99.90;;;;;;5015256;28;20394;-69
2022/10/02 08:10:26;;;;;;;6.53;6.00;;;16.60;99.90;;;;;;5015620;28;20971;-63
2022/10/02 08:13:20;;;;;;;8.07;5.87;;;16.60;99.90;;;;;;5014916;28;20870;-64
2022/10/02 08:15:51;;;;;;;7.83;5.97;;;16.70;99.90;;;;;;5015315;28;20473;-63
2022/10/02 08:18:27;;;;;;;10.57;6.53;;;16.70;99.90;;;;;;5015213;28;20936;-63
2022/10/02 08:20:53;;;;;;;6.30;5.70;;;16.70;99.90;;;;;;5015010;28;20398;-64
2022/10/02 08:23:38;;;;;;;7.80;5.80;;;16.80;99.90;;;;;;4997809;28;20421;-63
2022/10/02 08:26:20;;;;;;;7.13;6.40;;;16.80;99.90;;;;;;5014781;28;20457;-63
2022/10/02 08:29:00;;;;;;;7.40;6.40;;;16.80;99.90;;;;;;5015119;28;20958;-63
2022/10/02 08:31:26;;;;;;;7.80;6.50;;;16.80;99.90;;;;;;5015298;28;20406;-63
2022/10/02 08:33:52;;;;;;;7.93;7.20;;;16.80;99.90;;;;;;5014513;28;20403;-65
2022/10/02 08:36:45;;;;;;;7.20;6.50;;;16.70;99.90;;;;;;5015431;28;20917;-63
2022/10/02 08:39:44;;;;;;;7.27;6.60;;;16.70;99.90;;;;;;5014616;28;20347;-64
2022/10/02 08:42:57;;;;;;;7.53;6.83;;;16.70;99.90;;;;;;4990257;28;20422;-63
2022/10/02 08:45:45;;;;;;;8.93;7.70;;;16.70;99.90;;;;;;5001895;28;20426;-63
2022/10/02 08:48:48;;;;;;;6.93;6.30;;;16.60;99.90;;;;;;5014340;28;20930;-63
2022/10/02 08:51:32;;;;;;;9.77;7.60;;;16.70;99.90;;;;;;5014333;28;20430;-63
2022/10/02 08:54:16;;;;;;;12.90;8.20;;;16.70;99.90;;;;;;5014282;28;20452;-64
2022/10/02 08:56:57;;;;;;;9.57;7.70;;;16.80;99.90;;;;;;5014820;28;20437;-63
2022/10/02 08:59:24;;;;;;;9.63;8.70;;;16.80;99.90;;;;;;5014747;28;20458;-63
2022/10/02 09:02:18;;;;;;;9.73;8.50;;;16.90;99.90;;;;;;5014712;28;20800;-63
2022/10/02 09:05:30;;;;;;;10.13;9.00;;;16.90;99.90;;;;;;5014819;28;20402;-64
2022/10/02 09:08:07;;;;;;;11.00;9.97;;;17.00;99.90;;;;;;5014124;28;20406;-64
2022/10/02 09:11:15;;;;;;;10.30;8.90;;;17.10;99.90;;;;;;5014344;28;20826;-63
2022/10/02 09:14:10;;;;;;;10.00;8.90;;;17.10;99.90;;;;;;5014479;28;20394;-63
2022/10/02 09:16:53;;;;;;;9.43;8.50;;;17.10;99.90;;;;;;5014599;28;20432;-63
2022/10/02 09:19:38;;;;;;;9.77;8.73;;;17.20;99.90;;;;;;5014983;28;20436;-63
2022/10/02 09:22:16;;;;;;;10.10;9.00;;;17.30;99.90;;;;;;4996236;28;20827;-63
2022/10/02 09:25:33;;;;;;;10.37;9.37;;;17.40;99.90;;;;;;5014388;28;20398;-63
2022/10/02 09:28:26;;;;;;;9.50;8.60;;;17.50;99.90;;;;;;4988004;28;20456;-63
2022/10/02 09:31:26;;;;;;;9.53;8.63;;;17.60;99.90;;;;;;5013996;28;20407;-63
2022/10/02 09:34:09;;;;;;;11.50;8.40;;;17.70;99.90;;;;;;5013637;28;20418;-63
2022/10/02 09:36:54;;;;;;;9.30;8.10;;;17.70;99.90;;;;;;5013714;28;20937;-63
2022/10/02 09:39:26;;;;;;;10.47;8.30;;;17.80;99.90;;;;;;5014188;28;20429;-63
2022/10/02 09:42:07;;;;;;;10.50;6.83;;;17.80;99.90;;;;;;5013987;28;20422;-63
2022/10/02 09:44:57;;;;;;;10.73;7.37;;;17.70;99.90;;;;;;4996587;28;20422;-63
2022/10/02 09:48:04;;;;;;;10.13;7.50;;;17.70;99.90;;;;;;5014073;28;20418;-63
2022/10/02 09:51:13;;;;;;;9.80;8.20;;;17.80;99.90;;;;;;5013987;28;20414;-63
2022/10/02 09:54:17;;;;;;;9.13;8.17;;;17.70;99.90;;;;;;4985183;28;20465;-63
2022/10/02 09:57:01;;;;;;;11.83;8.03;;;17.60;99.90;;;;;;5013772;28;20406;-63
2022/10/02 09:59:33;;;;;;;9.33;8.50;;;17.50;99.90;;;;;;5014147;28;20737;-63
2022/10/02 10:02:19;;;;;;;11.20;8.10;;;17.40;99.90;;;;;;5012741;28;20402;-64
2022/10/02 10:05:07;;;;;;;12.30;9.17;;;17.40;99.90;;;;;;5013257;28;20471;-63
2022/10/02 10:07:48;;;;;;;9.77;8.87;;;17.30;99.90;;;;;;5013699;28;20414;-64
2022/10/02 10:10:29;;;;;;;11.03;9.97;;;17.30;99.90;;;;;;4995320;28;20780;-63
2022/10/02 10:13:16;;;;;;;12.27;10.10;;;17.30;99.90;;;;;;5013640;28;20422;-63
2022/10/02 10:16:17;;;;;;;13.70;11.67;;;17.40;99.90;;;;;;5013182;28;20465;-63
2022/10/02 10:19:12;;;;;;;12.47;11.07;;;17.40;99.90;;;;;;5013304;28;20406;-63
2022/10/02 10:22:09;;;;;;;15.37;10.80;;;17.40;99.90;;;;;;5013425;28;20410;-63
2022/10/02 10:25:09;;;;;;;12.83;11.60;;;17.50;99.90;;;;;;5013285;28;20949;-63
2022/10/02 10:28:36;;;;;;;16.57;12.17;;;17.70;99.90;;;;;;5013352;28;20410;-63
2022/10/02 10:31:30;;;;;;;12.93;11.63;;;17.70;99.90;;;;;;4963446;28;20428;-63
2022/10/02 10:34:25;;;;;;;13.13;11.83;;;17.70;99.90;;;;;;4971742;28;20455;-63
2022/10/02 10:40:08;;;;;;;13.70;11.10;;;17.70;99.90;;;;;;5013105;28;20493;-63
2022/10/02 10:42:37;;;;;;;12.17;10.93;;;17.60;99.90;;;;;;5013067;28;20879;-63
2022/10/02 10:45:37;;;;;;;15.43;12.07;;;17.60;99.90;;;;;;5012324;28;20784;-63
2022/10/02 10:48:44;;;;;;;14.00;10.63;;;17.60;99.90;;;;;;5012669;28;20956;-64
2022/10/02 10:51:29;;;;;;;10.37;9.33;;;17.60;99.90;;;;;;4975022;28;20430;-63
2022/10/02 10:54:21;;;;;;;9.70;8.90;;;17.60;99.90;;;;;;5012417;28;20429;-63
2022/10/02 10:57:03;;;;;;;10.60;8.30;;;17.60;99.90;;;;;;5012988;28;20448;-63
2022/10/02 11:00:06;;;;;;;12.00;9.80;;;17.70;99.90;;;;;;5012867;28;20445;-63
2022/10/02 11:03:09;;;;;;;13.67;8.23;;;17.70;99.90;;;;;;5012742;28;20425;-63
2022/10/02 11:06:13;;;;;;;9.87;8.57;;;17.80;99.90;;;;;;5014579;28;20611;-63
2022/10/02 11:09:08;;;;;;;12.77;8.70;;;18.00;99.90;;;;;;4952010;29;20954;-63
2022/10/02 11:11:37;;;;;;;8.97;7.60;;;18.10;99.90;;;;;;4952354;29;20901;-63
2022/10/02 11:14:21;;;;;;;8.80;8.00;;;18.40;99.90;;;;;;4992495;28;20466;-64
2022/10/02 11:17:06;;;;;;;7.93;7.13;;;18.80;99.90;;;;;;5012503;28;20426;-64
2022/10/02 11:19:41;;;;;;;7.70;7.10;;;19.00;99.90;;;;;;5012842;28;20425;-63
2022/10/02 11:22:38;;;;;;;8.23;7.40;;;19.10;99.90;;;;;;5012055;28;20449;-63
2022/10/02 11:25:45;;;;;;;10.20;8.00;;;19.10;99.90;;;;;;5012078;28;20770;-63
2022/10/02 11:28:37;;;;;;;9.00;6.93;;;19.00;99.90;;;;;;4978510;28;20485;-63
2022/10/02 11:31:09;;;;;;;8.30;7.70;;;19.00;99.90;;;;;;5011912;28;20489;-64
2022/10/02 11:34:07;;;;;;;10.80;8.33;;;18.90;99.90;;;;;;4994775;28;20445;-63
2022/10/02 11:36:41;;;;;;;9.77;8.20;;;18.90;99.90;;;;;;5012818;28;20929;-63
2022/10/02 11:39:14;;;;;;;8.60;7.90;;;19.00;99.90;;;;;;5011878;28;20418;-63
2022/10/02 11:41:52;;;;;;;8.03;7.50;;;19.20;99.90;;;;;;5012365;28;20414;-63
2022/10/02 11:44:43;;;;;;;9.67;7.10;;;19.20;99.90;;;;;;5011300;28;20878;-63
2022/10/02 11:47:13;;;;;;;6.93;5.27;;;19.30;99.90;;;;;;5011433;28;20421;-63
2022/10/02 11:49:52;;;;;;;8.50;7.80;;;19.20;99.90;;;;;;5012380;28;20422;-63
2022/10/02 11:52:46;;;;;;;7.43;6.73;;;19.10;99.90;;;;;;5013325;28;20414;-63
2022/10/02 11:55:20;;;;;;;6.77;6.17;;;19.00;99.90;;;;;;4961771;28;20888;-63
2022/10/02 11:58:06;;;;;;;7.10;6.40;;;18.90;99.90;;;;;;5016035;28;20398;-63
2022/10/02 12:01:04;;;;;;;8.07;5.93;;;18.90;99.90;;;;;;5015956;28;20413;-63
2022/10/02 12:03:51;;;;;;;10.17;6.20;;;18.90;99.90;;;;;;5015865;28;20406;-63
2022/10/02 12:06:32;;;;;;;6.53;6.03;;;18.90;99.90;;;;;;5004843;28;21011;-63
2022/10/02 12:09:16;;;;;;;5.70;5.30;;;19.00;99.90;;;;;;5015815;28;20414;-63
2022/10/02 12:11:59;;;;;;;6.50;5.50;;;19.00;99.90;;;;;;5015604;28;20985;-63
2022/10/02 12:14:58;;;;;;;6.10;5.50;;;19.10;99.90;;;;;;5015036;28;20453;-63
2022/10/02 12:17:26;;;;;;;6.30;5.70;;;19.10;99.90;;;;;;4995630;28;20450;-63
2022/10/02 12:29:39;;;;;;;7.43;5.70;;;19.30;99.90;;;;;;5014753;28;20410;-63
2022/10/02 12:32:35;;;;;;;5.53;5.03;;;19.30;99.90;;;;;;5014977;28;20471;-68
2022/10/02 12:35:51;;;;;;;9.00;6.73;;;19.30;99.90;;;;;;5015299;28;20457;-63
2022/10/02 12:38:39;;;;;;;7.83;5.07;;;19.40;99.90;;;;;;4997034;28;20517;-63
2022/10/02 12:41:32;;;;;;;8.90;5.87;;;19.40;99.90;;;;;;5013822;28;20914;-63
2022/10/02 12:44:46;;;;;;;6.10;5.27;;;19.40;99.90;;;;;;5015004;28;20448;-63
2022/10/02 12:47:21;;;;;;;6.23;4.97;;;19.40;99.90;;;;;;5005537;28;20437;-63
2022/10/02 12:50:24;;;;;;;8.00;6.20;;;19.20;99.60;;;;;;5015079;28;20429;-63
2022/10/02 12:53:08;;;;;;;6.27;4.80;;;19.10;99.50;;;;;;5014986;28;20421;-63
2022/10/02 12:56:11;;;;;;;6.73;4.20;;;19.00;99.60;;;;;;5013640;28;20537;-63
2022/10/02 12:59:07;;;;;;;5.80;5.40;;;18.80;99.30;;;;;;5013766;28;20790;-63
2022/10/02 13:02:06;;;;;;;5.50;4.97;;;18.80;99.50;;;;;;5014975;28;20402;-63
2022/10/02 13:04:50;;;;;;;5.43;4.93;;;18.70;99.90;;;;;;5013224;28;20560;-63
2022/10/02 13:07:36;;;;;;;5.43;4.87;;;18.70;99.90;;;;;;5012784;28;20458;-63
2022/10/02 13:10:28;;;;;;;8.30;5.70;;;18.70;99.90;;;;;;5014481;28;20418;-63
2022/10/02 13:13:23;;;;;;;7.10;5.27;;;18.60;99.90;;;;;;5014336;28;20760;-63
2022/10/02 13:16:04;;;;;;;6.77;5.03;;;18.60;99.90;;;;;;5014550;28;20842;-63
2022/10/02 13:18:37;;;;;;;8.30;5.20;;;18.50;99.90;;;;;;5013889;28;20414;-63
2022/10/02 13:21:17;;;;;;;7.37;5.47;;;18.60;99.90;;;;;;5013325;28;20432;-64
2022/10/02 13:24:04;;;;;;;6.17;5.17;;;18.60;99.90;;;;;;5014217;28;20852;-63
2022/10/02 13:26:45;;;;;;;6.27;5.40;;;18.70;99.90;;;;;;5013443;28;20922;-64
2022/10/02 13:29:22;;;;;;;6.63;5.77;;;18.70;99.90;;;;;;5013683;28;20448;-68
2022/10/02 13:32:03;;;;;;;5.53;5.00;;;18.70;99.90;;;;;;5014007;28;20521;-63
2022/10/02 13:34:34;;;;;;;5.37;4.80;;;18.80;99.90;;;;;;5013543;28;21171;-63
2022/10/02 13:37:30;;;;;;;8.30;5.20;;;18.80;99.90;;;;;;5014373;28;20744;-63
2022/10/02 13:40:17;;;;;;;5.63;5.13;;;18.80;99.90;;;;;;5014117;28;20395;-63
2022/10/02 13:42:54;;;;;;;6.43;5.23;;;18.80;99.90;;;;;;5013842;28;20426;-63
2022/10/02 13:45:58;;;;;;;7.17;5.67;;;18.80;99.90;;;;;;5013346;28;20410;-63
2022/10/02 13:49:11;;;;;;;9.93;5.10;;;18.80;99.90;;;;;;5013123;28;20401;-63
2022/10/02 13:52:23;;;;;;;7.03;5.20;;;18.70;99.90;;;;;;5004732;28;20426;-63
2022/10/02 13:55:01;;;;;;;7.60;6.20;;;18.70;99.90;;;;;;5013939;28;20540;-63
2022/10/02 13:57:47;;;;;;;6.00;5.43;;;18.70;99.90;;;;;;5013220;28;20445;-64
2022/10/02 14:00:26;;;;;;;6.97;6.27;;;18.70;99.90;;;;;;5013218;28;20394;-63
2022/10/02 14:03:20;;;;;;;7.83;6.00;;;18.70;99.90;;;;;;5012071;28;20426;-63
2022/10/02 14:05:58;;;;;;;7.77;6.97;;;18.70;99.90;;;;;;5013376;28;20805;-63
2022/10/02 14:09:01;;;;;;;5.07;4.10;;;18.70;99.90;;;;;;5013063;28;20452;-63
2022/10/02 14:11:42;;;;;;;8.63;4.80;;;18.70;99.90;;;;;;5013199;28;20417;-63
2022/10/02 14:14:41;;;;;;;5.37;4.33;;;18.80;99.90;;;;;;5013567;28;20398;-63
2022/10/02 14:17:34;;;;;;;5.43;4.20;;;18.80;99.90;;;;;;4995930;28;20436;-63